createdAt,value
2023-03-14T00:01:22.317Z,100290.68
2023-03-14T00:03:50.576Z,100294.96
2023-03-14T00:06:19.457Z,100298.30
2023-03-14T00:08:47.440Z,100295.95
2023-03-14T00:11:21.921Z,100305.26
2023-03-14T00:13:52.041Z,100309.71
2023-03-14T00:16:20.660Z,100302.41
2023-03-14T00:18:48.707Z,100303.23
2023-03-14T00:21:16.896Z,100301.66
2023-03-14T00:23:45.033Z,100309.41
2023-03-14T00:26:18.653Z,100304.51
2023-03-14T00:28:46.508Z,100308.14
2023-03-14T00:31:17.241Z,100301.14
2023-03-14T00:33:46.476Z,100302.71
2023-03-14T00:36:19.049Z,100296.07
2023-03-14T00:38:48.480Z,100300.00
2023-03-14T00:41:18.934Z,100303.66
2023-03-14T00:43:46.685Z,100297.15
2023-03-14T00:46:15.162Z,100286.55
2023-03-14T00:48:42.942Z,100263.73
2023-03-14T00:51:10.994Z,100213.73
2023-03-14T00:53:40.428Z,100190.65
2023-03-14T00:56:10.887Z,100177.63
2023-03-14T00:58:38.736Z,100177.86
2023-03-14T01:01:17.039Z,100154.25
2023-03-14T01:03:44.794Z,100143.85
2023-03-14T01:06:22.020Z,100104.45
2023-03-14T01:08:50.074Z,100089.90
2023-03-14T01:11:24.180Z,100089.41
2023-03-14T01:13:52.085Z,100098.73
2023-03-14T01:16:21.618Z,100112.20
2023-03-14T01:18:50.000Z,100113.77
2023-03-14T01:21:29.799Z,100098.27
2023-03-14T01:24:00.172Z,100092.55
2023-03-14T01:26:31.220Z,100094.41
2023-03-14T01:28:59.577Z,100087.94
2023-03-14T01:31:28.411Z,100107.88
2023-03-14T01:33:56.453Z,100133.84
2023-03-14T01:36:24.149Z,100148.37
2023-03-14T01:38:51.836Z,100164.68
2023-03-14T01:41:27.934Z,100141.86
2023-03-14T01:43:55.902Z,100141.86
2023-03-14T01:46:31.621Z,100137.74
2023-03-14T01:49:05.834Z,100133.95
2023-03-14T01:51:58.765Z,100127.73
2023-03-14T01:54:43.871Z,100117.92
2023-03-14T01:57:19.824Z,100110.95
2023-03-14T01:59:56.597Z,100104.45
2023-03-14T02:02:28.370Z,100093.33
2023-03-14T02:04:58.565Z,100082.73
2023-03-14T02:07:43.108Z,100063.28
2023-03-14T02:10:12.215Z,100070.05
2023-03-14T02:12:40.965Z,100067.99
2023-03-14T02:15:09.348Z,100077.34
2023-03-14T02:17:37.705Z,100079.70
2023-03-14T02:20:11.603Z,100076.85
2023-03-14T02:22:42.470Z,100069.88
2023-03-14T02:25:25.350Z,100068.58
2023-03-14T02:27:53.166Z,100070.15
2023-03-14T02:30:24.757Z,100082.38
2023-03-14T02:32:57.684Z,100081.07
2023-03-14T02:35:29.098Z,100071.72
2023-03-14T02:38:23.211Z,100072.53
2023-03-14T02:40:51.183Z,100079.01
2023-03-14T02:43:19.024Z,100083.95
2023-03-14T02:45:49.093Z,100085.22
2023-03-14T02:48:27.069Z,100082.38
2023-03-14T02:50:58.620Z,100071.26
2023-03-14T02:53:36.090Z,100058.77
2023-03-14T02:56:03.856Z,100059.55
2023-03-14T02:58:32.448Z,100046.57
2023-03-14T03:01:00.270Z,100047.35
2023-03-14T03:03:27.928Z,100043.43
2023-03-14T03:05:57.889Z,100048.63
2023-03-14T03:08:28.511Z,100049.94
2023-03-14T03:10:56.342Z,100048.37
2023-03-14T03:13:24.034Z,100039.02
2023-03-14T03:15:51.799Z,100035.16
2023-03-14T03:18:19.533Z,100040.39
2023-03-14T03:20:47.905Z,100047.65
2023-03-14T03:23:15.732Z,100044.80
2023-03-14T03:25:43.501Z,100047.95
2023-03-14T03:28:11.200Z,100045.59
2023-03-14T03:30:42.671Z,100040.95
2023-03-14T03:33:11.183Z,100036.53
2023-03-14T03:35:50.670Z,100038.43
2023-03-14T03:38:19.023Z,100036.04
2023-03-14T03:40:46.663Z,100034.27
2023-03-14T03:43:14.482Z,100026.49
2023-03-14T03:45:42.413Z,100026.03
2023-03-14T03:48:10.100Z,100023.95
2023-03-14T03:50:37.810Z,100025.55
2023-03-14T03:53:05.608Z,100019.85
2023-03-14T03:55:33.275Z,100022.18
2023-03-14T03:58:00.923Z,100013.91
2023-03-14T04:00:28.722Z,100021.98
2023-03-14T04:02:56.453Z,100014.43
2023-03-14T04:05:24.318Z,100004.09
2023-03-14T04:07:52.031Z,100002.52
2023-03-14T04:10:19.730Z,100017.27
2023-03-14T04:12:47.531Z,100013.91
2023-03-14T04:15:15.241Z,100004.09
2023-03-14T04:17:43.298Z,99988.27
2023-03-14T04:20:14.652Z,99986.70
2023-03-14T04:22:44.549Z,99988.27
2023-03-14T04:25:12.578Z,99985.42
2023-03-14T04:27:40.322Z,99982.05
2023-03-14T04:30:08.686Z,99982.55
2023-03-14T04:32:36.416Z,99976.56
2023-03-14T04:35:04.180Z,99977.38
2023-03-14T04:37:31.853Z,99979.41
2023-03-14T04:39:59.532Z,99967.24
2023-03-14T04:42:27.189Z,99964.40
2023-03-14T04:44:55.066Z,99970.87
2023-03-14T04:47:22.783Z,99980.22
2023-03-14T04:49:50.535Z,99969.59
2023-03-14T04:52:18.324Z,99942.35
2023-03-14T04:54:45.993Z,99960.73
2023-03-14T04:57:13.742Z,99958.70
2023-03-14T04:59:41.376Z,99958.70
2023-03-14T05:02:09.050Z,99963.61
2023-03-14T05:04:36.837Z,99947.78
2023-03-14T05:07:04.766Z,99939.22
2023-03-14T05:09:32.492Z,99937.65
2023-03-14T05:12:00.336Z,99933.52
2023-03-14T05:14:28.045Z,99927.84
2023-03-14T05:16:55.686Z,99919.27
2023-03-14T05:19:23.529Z,99916.42
2023-03-14T05:21:51.301Z,99905.50
2023-03-14T05:24:19.006Z,99894.41
2023-03-14T05:26:46.744Z,99889.48
2023-03-14T05:29:14.418Z,99890.27
2023-03-14T05:31:42.175Z,99895.17
2023-03-14T05:34:09.886Z,99898.05
2023-03-14T05:36:37.628Z,99895.17
2023-03-14T05:39:05.380Z,99894.09
2023-03-14T05:41:33.131Z,99882.22
2023-03-14T05:44:00.840Z,99877.51
2023-03-14T05:46:28.553Z,99877.51
2023-03-14T05:48:56.290Z,99877.80
2023-03-14T05:51:23.932Z,99871.82
2023-03-14T05:53:51.784Z,99858.31
2023-03-14T05:56:19.797Z,99857.83
2023-03-14T05:58:47.509Z,99857.56
2023-03-14T06:01:15.160Z,99841.73
2023-03-14T06:03:42.903Z,99840.46
2023-03-14T06:06:10.703Z,99845.89
2023-03-14T06:08:38.329Z,99845.56
2023-03-14T06:11:06.524Z,99841.73
2023-03-14T06:13:34.262Z,99848.21
2023-03-14T06:16:01.891Z,99850.30
2023-03-14T06:18:29.786Z,99837.62
2023-03-14T06:20:57.941Z,99848.73
2023-03-14T06:23:25.861Z,99849.00
2023-03-14T06:25:53.844Z,99840.46
2023-03-14T06:28:21.555Z,99850.04
2023-03-14T06:30:49.292Z,99845.17
2023-03-14T06:33:17.143Z,99830.91
2023-03-14T06:35:44.838Z,99835.82
2023-03-14T06:38:12.630Z,99835.82
2023-03-14T06:40:40.467Z,99825.19
2023-03-14T06:43:08.305Z,99819.80
2023-03-14T06:45:35.995Z,99812.80
2023-03-14T06:48:03.734Z,99813.38
2023-03-14T06:50:31.520Z,99804.82
2023-03-14T06:52:59.249Z,99804.63
2023-03-14T06:55:28.255Z,99802.82
2023-03-14T06:57:56.005Z,99805.44
2023-03-14T07:00:24.116Z,99796.41
2023-03-14T07:02:51.849Z,99789.71
2023-03-14T07:05:19.541Z,99794.91
2023-03-14T07:07:47.292Z,99796.48
2023-03-14T07:10:15.090Z,99800.41
2023-03-14T07:12:42.700Z,99805.87
2023-03-14T07:15:18.673Z,99808.77
2023-03-14T07:17:47.096Z,99804.43
2023-03-14T07:20:14.949Z,99794.87
2023-03-14T07:22:42.698Z,99806.62
2023-03-14T07:25:13.852Z,99790.59
2023-03-14T07:27:41.532Z,99797.07
2023-03-14T07:30:09.722Z,99805.60
2023-03-14T07:32:37.405Z,99807.47
2023-03-14T07:35:05.866Z,99802.04
2023-03-14T07:37:33.586Z,99803.09
2023-03-14T07:40:01.342Z,99815.31
2023-03-14T07:42:29.154Z,99822.34
2023-03-14T07:44:56.845Z,99828.36
2023-03-14T07:47:24.580Z,99818.23
2023-03-14T07:49:52.241Z,99816.95
2023-03-14T07:52:19.987Z,99824.50
2023-03-14T07:54:47.817Z,99823.78
2023-03-14T07:57:15.579Z,99829.28
2023-03-14T07:59:43.261Z,99830.39
2023-03-14T08:02:14.111Z,99832.71
2023-03-14T08:04:42.718Z,99842.36
2023-03-14T08:07:10.469Z,99831.80
2023-03-14T08:09:38.187Z,99827.91
2023-03-14T08:12:06.086Z,99839.64
2023-03-14T08:14:33.961Z,99835.79
2023-03-14T08:17:01.657Z,99828.00
2023-03-14T08:19:29.662Z,99819.70
2023-03-14T08:21:57.484Z,99832.98
2023-03-14T08:24:25.148Z,99832.71
2023-03-14T08:26:53.044Z,99814.07
2023-03-14T08:29:20.812Z,99820.25
2023-03-14T08:31:48.628Z,99822.90
2023-03-14T08:34:16.656Z,99830.69
2023-03-14T08:36:44.621Z,99826.27
2023-03-14T08:39:12.413Z,99843.70
2023-03-14T08:41:43.149Z,99833.76
2023-03-14T08:44:11.726Z,99840.23
2023-03-14T08:46:39.781Z,99833.43
2023-03-14T08:49:07.759Z,99841.21
2023-03-14T08:51:35.671Z,99860.48
2023-03-14T08:54:03.476Z,99856.02
2023-03-14T08:56:31.289Z,99863.55
2023-03-14T08:58:59.336Z,99859.88
2023-03-14T09:01:28.354Z,99843.54
2023-03-14T09:03:56.074Z,99844.84
2023-03-14T09:06:24.120Z,99865.41
2023-03-14T09:08:52.100Z,99845.92
2023-03-14T09:11:20.808Z,99865.18
2023-03-14T09:13:48.724Z,99868.84
2023-03-14T09:16:16.552Z,99853.48
2023-03-14T09:18:44.483Z,99852.43
2023-03-14T09:21:12.692Z,99856.65
2023-03-14T09:23:41.968Z,99867.34
2023-03-14T09:26:10.155Z,99872.31
2023-03-14T09:28:38.223Z,99859.59
2023-03-14T09:31:11.034Z,99875.22
2023-03-14T09:33:40.067Z,99891.15
2023-03-14T09:36:09.752Z,99884.61
2023-03-14T09:38:37.613Z,99897.88
2023-03-14T09:41:19.838Z,99907.79
2023-03-14T09:43:50.541Z,99892.72
2023-03-14T09:46:18.309Z,99890.10
2023-03-14T09:48:46.336Z,99905.47
2023-03-14T09:51:18.896Z,99914.85
2023-03-14T09:53:49.713Z,99911.48
2023-03-14T09:56:28.945Z,99941.44
2023-03-14T09:59:03.077Z,99919.83
2023-03-14T10:01:33.652Z,99925.55
2023-03-14T10:04:17.352Z,99917.21
2023-03-14T10:06:45.323Z,99916.42
2023-03-14T10:09:21.599Z,99927.90
2023-03-14T10:11:49.514Z,99933.36
2023-03-14T10:14:34.114Z,99933.36
2023-03-14T10:17:11.946Z,99937.02
2023-03-14T10:19:55.260Z,99938.07
2023-03-14T10:22:25.328Z,99923.45
2023-03-14T10:25:01.317Z,99935.45
2023-03-14T10:27:34.588Z,99931.27
2023-03-14T10:30:05.248Z,99920.58
2023-03-14T10:32:39.644Z,99940.13
2023-03-14T10:35:22.143Z,99939.61
2023-03-14T10:37:57.998Z,99942.75
2023-03-14T10:40:35.780Z,99936.47
2023-03-14T10:43:07.161Z,99924.77
2023-03-14T10:45:42.124Z,99935.45
2023-03-14T10:48:22.438Z,99966.69
2023-03-14T10:51:13.138Z,99973.45
2023-03-14T10:53:47.253Z,99970.84
2023-03-14T10:56:17.935Z,99978.65
2023-03-14T10:58:48.255Z,99994.28
2023-03-14T11:01:55.141Z,99980.94
2023-03-14T11:04:35.008Z,100011.38
2023-03-14T11:07:16.677Z,99978.26
2023-03-14T11:09:52.824Z,100008.57
2023-03-14T11:12:43.844Z,99989.94
2023-03-14T11:15:19.315Z,99988.49
2023-03-14T11:17:58.860Z,99980.32
2023-03-14T11:20:29.580Z,99980.98
2023-03-14T11:23:16.346Z,99985.13
2023-03-14T11:26:15.867Z,99995.76
2023-03-14T11:28:51.459Z,100000.43
2023-03-14T11:31:41.381Z,100012.37
2023-03-14T11:34:09.095Z,100006.64
2023-03-14T11:37:01.471Z,100021.66
2023-03-14T11:39:40.009Z,100015.99
2023-03-14T11:42:16.085Z,100019.92
2023-03-14T11:44:47.570Z,100031.56
2023-03-14T11:47:21.235Z,100032.48
2023-03-14T11:50:04.200Z,100036.01
2023-03-14T11:52:39.710Z,100035.88
2023-03-14T11:55:09.933Z,100038.92
2023-03-14T11:57:37.944Z,100044.77
2023-03-14T12:00:14.853Z,100047.48
2023-03-14T12:02:55.891Z,100054.19
2023-03-14T12:05:46.494Z,100063.54
2023-03-14T12:08:46.654Z,100068.91
2023-03-14T12:11:17.572Z,100085.35
2023-03-14T12:13:51.278Z,100090.81
2023-03-14T12:16:25.103Z,100095.26
2023-03-14T12:18:54.336Z,100097.84
2023-03-14T12:21:48.734Z,100100.63
2023-03-14T12:24:31.081Z,100087.09
2023-03-14T12:27:05.179Z,100095.62
2023-03-14T12:29:56.470Z,100096.50
2023-03-14T12:32:26.801Z,100092.45
2023-03-14T12:34:55.312Z,100082.70
2023-03-14T12:37:43.665Z,100096.83
2023-03-14T12:40:20.035Z,100088.95
2023-03-14T12:43:02.912Z,100081.40
2023-03-14T12:45:34.212Z,100107.23
2023-03-14T12:48:21.716Z,100116.26
2023-03-14T12:50:56.861Z,100114.69
2023-03-14T12:53:41.943Z,100130.51
2023-03-14T12:56:50.456Z,100161.94
2023-03-14T12:59:53.738Z,100163.93
2023-03-14T13:02:43.834Z,100178.68
2023-03-14T13:05:21.337Z,100179.23
2023-03-14T13:07:49.165Z,100167.85
2023-03-14T13:10:41.740Z,100187.34
2023-03-14T13:13:27.913Z,100199.34
2023-03-14T13:16:02.371Z,100196.01
2023-03-14T13:18:42.347Z,100202.48
2023-03-14T13:21:19.962Z,100216.94
2023-03-14T13:24:05.729Z,100214.09
2023-03-14T13:26:54.461Z,100227.04
2023-03-14T13:29:28.383Z,100240.25
2023-03-14T13:32:01.803Z,100267.00
2023-03-14T13:34:36.474Z,100273.51
2023-03-14T13:37:04.218Z,100297.05
2023-03-14T13:39:35.057Z,100333.77
2023-03-14T13:42:04.090Z,100334.92
2023-03-14T13:44:38.544Z,100325.86
2023-03-14T13:47:12.136Z,100350.42
2023-03-14T13:49:40.590Z,100352.74
2023-03-14T13:52:25.019Z,100366.57
2023-03-14T13:55:01.241Z,100380.63
2023-03-14T13:57:29.050Z,100375.08
2023-03-14T14:00:08.994Z,100383.88
2023-03-14T14:02:39.491Z,100406.77
2023-03-14T14:05:07.769Z,100398.55
2023-03-14T14:07:35.894Z,100390.97
2023-03-14T14:10:03.819Z,100406.17
2023-03-14T14:12:39.367Z,100416.37
2023-03-14T14:15:13.645Z,100419.62
2023-03-14T14:17:46.510Z,100419.94
2023-03-14T14:20:25.570Z,100443.65
2023-03-14T14:22:54.044Z,100447.90
2023-03-14T14:25:21.913Z,100461.70
2023-03-14T14:27:52.312Z,100442.99
2023-03-14T14:30:20.035Z,100453.33
2023-03-14T14:32:50.120Z,100444.07
2023-03-14T14:35:36.589Z,100463.66
2023-03-14T14:38:05.276Z,100473.05
2023-03-14T14:40:33.674Z,100483.18
2023-03-14T14:43:07.159Z,100496.07
2023-03-14T14:45:36.967Z,100490.67
2023-03-14T14:48:07.523Z,100498.65
2023-03-14T14:50:52.611Z,100499.60
2023-03-14T14:53:23.112Z,100534.26
2023-03-14T14:55:56.857Z,100537.47
2023-03-14T14:58:35.485Z,100529.26
2023-03-14T15:01:12.891Z,100544.82
2023-03-14T15:03:40.749Z,100535.77
2023-03-14T15:06:12.429Z,100529.39
2023-03-14T15:08:40.169Z,100540.02
2023-03-14T15:11:07.923Z,100530.83
2023-03-14T15:13:36.109Z,100552.90
2023-03-14T15:16:03.846Z,100551.33
2023-03-14T15:18:32.894Z,100560.55
2023-03-14T15:21:00.672Z,100580.86
2023-03-14T15:23:28.378Z,100563.10
2023-03-14T15:25:56.696Z,100575.33
2023-03-14T15:28:26.892Z,100574.35
2023-03-14T15:30:57.137Z,100581.15
2023-03-14T15:33:26.233Z,100573.53
2023-03-14T15:35:54.486Z,100587.62
2023-03-14T15:38:24.813Z,100586.35
2023-03-14T15:40:53.735Z,100602.57
2023-03-14T15:43:21.925Z,100598.74
2023-03-14T15:45:49.670Z,100590.51
2023-03-14T15:48:23.391Z,100590.87
2023-03-14T15:50:51.368Z,100603.23
2023-03-14T15:53:19.628Z,100591.52
2023-03-14T15:55:47.419Z,100602.34
2023-03-14T15:58:21.495Z,100611.20
2023-03-14T16:00:50.648Z,100610.23
2023-03-14T16:03:18.987Z,100617.88
2023-03-14T16:05:46.620Z,100628.50
2023-03-14T16:08:14.445Z,100617.38
2023-03-14T16:10:43.289Z,100622.12
2023-03-14T16:13:11.052Z,100599.30
2023-03-14T16:15:38.771Z,100617.02
2023-03-14T16:18:20.650Z,100606.89
2023-03-14T16:21:02.862Z,100607.67
2023-03-14T16:23:33.055Z,100604.34
2023-03-14T16:26:01.042Z,100605.16
2023-03-14T16:28:28.932Z,100608.59
2023-03-14T16:31:06.325Z,100613.63
2023-03-14T16:33:36.128Z,100607.61
2023-03-14T16:36:11.818Z,100609.30
2023-03-14T16:38:42.317Z,100606.92
2023-03-14T16:41:16.397Z,100598.65
2023-03-14T16:43:44.444Z,100599.92
2023-03-14T16:46:19.309Z,100592.30
2023-03-14T16:48:47.367Z,100588.67
2023-03-14T16:51:17.485Z,100595.84
2023-03-14T16:53:46.732Z,100596.20
2023-03-14T16:56:15.893Z,100602.73
2023-03-14T16:58:43.829Z,100610.65
2023-03-14T17:01:14.535Z,100610.35
2023-03-14T17:03:45.546Z,100617.02
2023-03-14T17:06:25.039Z,100618.01
2023-03-14T17:08:54.029Z,100628.63
2023-03-14T17:11:22.152Z,100635.89
2023-03-14T17:13:50.032Z,100633.87
2023-03-14T17:16:18.255Z,100637.16
2023-03-14T17:18:46.354Z,100639.72
2023-03-14T17:21:14.088Z,100642.59
2023-03-14T17:23:42.217Z,100647.01
2023-03-14T17:26:10.462Z,100647.83
2023-03-14T17:28:38.330Z,100648.58
2023-03-14T17:31:11.829Z,100653.84
2023-03-14T17:33:39.874Z,100652.73
2023-03-14T17:36:08.632Z,100653.68
2023-03-14T17:38:37.244Z,100663.20
2023-03-14T17:41:10.252Z,100669.28
2023-03-14T17:43:39.093Z,100669.90
2023-03-14T17:46:15.454Z,100668.98
2023-03-14T17:48:44.548Z,100669.97
2023-03-14T17:51:13.768Z,100691.52
2023-03-14T17:53:42.266Z,100699.59
2023-03-14T17:56:10.957Z,100715.95
2023-03-14T17:58:39.043Z,100726.41
2023-03-14T18:01:12.275Z,100722.25
2023-03-14T18:03:40.442Z,100729.55
2023-03-14T18:06:10.225Z,100717.19
2023-03-14T18:08:39.510Z,100712.41
2023-03-14T18:11:08.294Z,100729.77
2023-03-14T18:13:38.297Z,100733.86
2023-03-14T18:16:07.245Z,100728.92
2023-03-14T18:18:35.177Z,100743.12
2023-03-14T18:21:02.934Z,100745.93
2023-03-14T18:23:30.738Z,100751.88
2023-03-14T18:26:00.565Z,100754.23
2023-03-14T18:28:29.997Z,100759.23
2023-03-14T18:31:26.363Z,100753.22
2023-03-14T18:33:56.806Z,100756.82
2023-03-14T18:36:24.850Z,100775.62
2023-03-14T18:38:57.563Z,100778.14
2023-03-14T18:41:27.058Z,100795.17
2023-03-14T18:43:56.070Z,100796.77
2023-03-14T18:46:24.864Z,100805.31
2023-03-14T18:48:57.460Z,100813.06
2023-03-14T18:51:27.122Z,100810.22
2023-03-14T18:54:02.825Z,100818.06
2023-03-14T18:56:35.950Z,100827.41
2023-03-14T18:59:03.615Z,100825.81
2023-03-14T19:01:35.309Z,100847.89
2023-03-14T19:04:04.463Z,100857.66
2023-03-14T19:06:35.565Z,100851.68
2023-03-14T19:09:03.883Z,100850.54
2023-03-14T19:11:31.635Z,100859.66
2023-03-14T19:14:01.070Z,100844.65
2023-03-14T19:16:29.152Z,100867.02
2023-03-14T19:18:57.050Z,100868.39
2023-03-14T19:21:43.017Z,100876.73
2023-03-14T19:24:14.258Z,100870.38
2023-03-14T19:26:42.037Z,100872.55
2023-03-14T19:29:10.936Z,100880.98
2023-03-14T19:31:39.232Z,100882.48
2023-03-14T19:34:07.068Z,100894.06
2023-03-14T19:36:37.358Z,100910.09
2023-03-14T19:39:07.352Z,100907.37
2023-03-14T19:41:35.591Z,100912.38
2023-03-14T19:44:03.646Z,100915.31
2023-03-14T19:46:34.102Z,100918.98
2023-03-14T19:49:01.892Z,100930.55
2023-03-14T19:51:32.187Z,100936.24
2023-03-14T19:54:04.423Z,100953.70
2023-03-14T19:56:33.574Z,100963.58
2023-03-14T19:59:04.297Z,100991.77
2023-03-14T20:01:32.684Z,100956.55
2023-03-14T20:04:00.521Z,100983.53
2023-03-14T20:06:28.258Z,100973.62
2023-03-14T20:08:55.977Z,100963.74
2023-03-14T20:11:23.834Z,100951.35
2023-03-14T20:13:51.614Z,100946.25
2023-03-14T20:16:19.397Z,100958.48
2023-03-14T20:18:47.469Z,100976.14
2023-03-14T20:21:15.451Z,100997.33
2023-03-14T20:23:45.191Z,100996.84
2023-03-14T20:26:13.044Z,100994.65
2023-03-14T20:28:40.808Z,100998.18
2023-03-14T20:31:08.878Z,101000.86
2023-03-14T20:33:36.754Z,101000.23
2023-03-14T20:36:05.115Z,100995.89
2023-03-14T20:38:33.180Z,100992.00
2023-03-14T20:41:01.839Z,101004.13
2023-03-14T20:43:31.335Z,100994.02
2023-03-14T20:46:01.180Z,100992.88
2023-03-14T20:48:30.354Z,101002.16
2023-03-14T20:50:58.691Z,101002.52
2023-03-14T20:53:26.636Z,101010.60
2023-03-14T20:55:57.364Z,101006.52
2023-03-14T20:58:26.435Z,101002.00
2023-03-14T21:00:57.147Z,100992.62
2023-03-14T21:03:25.914Z,101000.23
2023-03-14T21:05:54.121Z,100991.28
2023-03-14T21:08:24.327Z,100996.41
2023-03-14T21:10:54.627Z,101014.59
2023-03-14T21:13:22.972Z,101000.30
2023-03-14T21:15:50.870Z,101003.05
2023-03-14T21:18:18.674Z,101004.59
2023-03-14T21:20:46.559Z,100994.38
2023-03-14T21:23:17.835Z,100989.51
2023-03-14T21:25:46.568Z,100990.20
2023-03-14T21:28:14.710Z,100982.84
2023-03-14T21:30:42.660Z,100965.38
2023-03-14T21:33:10.400Z,100975.48
2023-03-14T21:35:38.314Z,100978.33
2023-03-14T21:38:06.375Z,100966.06
2023-03-14T21:40:34.335Z,100976.89
2023-03-14T21:43:03.181Z,100971.13
2023-03-14T21:45:31.067Z,100970.58
2023-03-14T21:48:00.117Z,100971.27
2023-03-14T21:50:28.309Z,100971.95
2023-03-14T21:52:57.830Z,100974.60
2023-03-14T21:55:26.590Z,100967.30
2023-03-14T21:57:56.206Z,100978.66
2023-03-14T22:00:27.199Z,100975.74
2023-03-14T22:03:12.159Z,100968.81
2023-03-14T22:05:47.186Z,100968.95
2023-03-14T22:08:16.564Z,100957.14
2023-03-14T22:10:52.308Z,100955.96
2023-03-14T22:13:21.362Z,100956.78
2023-03-14T22:15:50.327Z,100959.63
2023-03-14T22:18:19.367Z,100958.38
2023-03-14T22:20:47.358Z,100945.34
2023-03-14T22:23:15.479Z,100950.53
2023-03-14T22:25:44.458Z,100944.42
2023-03-14T22:28:12.390Z,100952.95
2023-03-14T22:30:40.366Z,100947.69
2023-03-14T22:33:08.383Z,100951.77
2023-03-14T22:35:36.409Z,100951.13
2023-03-14T22:38:04.138Z,100945.53
2023-03-14T22:40:31.831Z,100948.11
2023-03-14T22:42:59.586Z,100952.20
2023-03-14T22:45:27.365Z,100961.16
2023-03-14T22:47:55.441Z,100969.80
2023-03-14T22:50:23.261Z,100952.04
2023-03-14T22:52:51.013Z,100966.33
2023-03-14T22:55:18.827Z,100958.28
2023-03-14T22:57:46.868Z,100976.98
2023-03-14T23:00:17.985Z,100978.55
2023-03-14T23:02:45.821Z,100981.86
2023-03-14T23:05:13.994Z,100979.48
2023-03-14T23:07:41.959Z,100994.91
2023-03-14T23:10:11.352Z,100977.41
2023-03-14T23:12:39.133Z,100978.75
2023-03-14T23:15:08.470Z,101002.16
2023-03-14T23:17:36.717Z,101012.70
2023-03-14T23:20:07.611Z,101015.09
2023-03-14T23:22:35.369Z,101008.61
2023-03-14T23:25:04.910Z,101009.43
2023-03-14T23:27:33.216Z,101019.86
2023-03-14T23:30:01.080Z,101037.77
2023-03-14T23:32:29.066Z,101035.72
2023-03-14T23:34:56.795Z,101046.28
2023-03-14T23:37:25.808Z,101044.77
2023-03-14T23:39:53.609Z,101042.84
2023-03-14T23:42:21.599Z,101031.23
2023-03-14T23:44:49.310Z,101030.98
2023-03-14T23:47:17.307Z,101058.18
2023-03-14T23:49:44.995Z,101072.08
2023-03-14T23:52:12.799Z,101065.34
2023-03-14T23:54:40.507Z,101076.95
2023-03-14T23:57:08.499Z,101082.05
2023-03-14T23:59:38.847Z,101087.52
